Time;durP1;ratioP1;P1;durP2;ratioP2;P2;SDS_P1;SDS_P2;PMS_P1;PMS_P2;Temp;Humidity;BMP_temperature;BMP_pressure;BME280_temperature;BME280_humidity;BME280_pressure;Samples;Min_cycle;Max_cycle;Signal;HPM_P1;HPM_P2
2022/11/29 00:01:20;;;;;;;10.98;10.18;;;;;;;;;;4996111;28;20030;-57
2022/11/29 00:03:45;;;;;;;10.73;9.95;;;;;;;;;;4994029;28;20468;-57
2022/11/29 00:06:13;;;;;;;10.10;9.40;;;;;;;;;;4995902;28;20427;-57
2022/11/29 00:08:40;;;;;;;10.38;9.57;;;;;;;;;;4993330;28;20038;-56
2022/11/29 00:12:10;;;;;;;11.23;10.43;;;;;;;;;;4993381;28;20057;-57
2022/11/29 00:14:00;;;;;;;10.98;10.18;;;;;;;;;;4996036;28;20433;-55
2022/11/29 00:16:26;;;;;;;9.60;8.98;;;;;;;;;;4996820;28;20116;-57
2022/11/29 00:18:51;;;;;;;11.38;10.52;;;;;;;;;;4996427;28;20049;-56
2022/11/29 00:21:16;;;;;;;9.18;8.48;;;;;;;;;;4996707;28;20081;-56
2022/11/29 00:23:42;;;;;;;10.32;9.63;;;;;;;;;;4994553;28;20652;-57
2022/11/29 00:26:07;;;;;;;10.07;9.38;;;;;;;;;;4994351;28;20021;-57
2022/11/29 00:28:34;;;;;;;10.50;9.77;;;;;;;;;;4996164;28;20026;-57
2022/11/29 00:30:59;;;;;;;11.05;9.98;;;;;;;;;;4991441;28;20045;-55
2022/11/29 00:33:25;;;;;;;9.48;8.88;;;;;;;;;;4995441;28;20046;-57
2022/11/29 00:35:50;;;;;;;10.85;10.07;;;;;;;;;;4995016;28;20041;-57
2022/11/29 00:38:16;;;;;;;9.93;9.23;;;;;;;;;;4995949;28;20041;-56
2022/11/29 00:40:41;;;;;;;13.27;9.68;;;;;;;;;;4993483;28;20132;-56
2022/11/29 00:43:06;;;;;;;9.85;9.15;;;;;;;;;;4993540;28;20165;-56
2022/11/29 00:45:32;;;;;;;10.70;9.77;;;;;;;;;;4993830;28;20046;-56
2022/11/29 00:47:57;;;;;;;10.10;9.40;;;;;;;;;;4992731;28;20034;-54
2022/11/29 00:50:22;;;;;;;13.75;12.68;;;;;;;;;;4994329;28;20678;-57
2022/11/29 00:52:48;;;;;;;10.93;10.02;;;;;;;;;;4992775;28;20589;-56
2022/11/29 00:55:14;;;;;;;10.88;10.00;;;;;;;;;;4998580;28;20067;-56
2022/11/29 00:57:39;;;;;;;10.15;9.45;;;;;;;;;;4993355;28;20045;-57
2022/11/29 01:00:05;;;;;;;12.50;11.50;;;;;;;;;;4994680;28;20030;-56
2022/11/29 01:02:31;;;;;;;10.68;9.95;;;;;;;;;;4994632;28;20045;-56
2022/11/29 01:04:56;;;;;;;10.45;9.77;;;;;;;;;;4995505;28;20041;-56
2022/11/29 01:07:21;;;;;;;9.38;8.68;;;;;;;;;;4993957;28;20340;-56
2022/11/29 01:09:46;;;;;;;9.90;9.18;;;;;;;;;;4997636;28;20033;-56
2022/11/29 01:12:12;;;;;;;11.32;10.52;;;;;;;;;;4994497;28;20144;-54
2022/11/29 01:14:37;;;;;;;10.07;9.38;;;;;;;;;;4994403;28;20051;-55
2022/11/29 01:17:03;;;;;;;11.07;10.23;;;;;;;;;;4993575;28;20034;-55
2022/11/29 01:19:28;;;;;;;9.20;8.45;;;;;;;;;;4990945;28;20046;-57
2022/11/29 01:21:53;;;;;;;10.43;9.73;;;;;;;;;;4991738;28;20085;-55
2022/11/29 01:24:21;;;;;;;11.25;10.25;;;;;;;;;;4991486;28;20113;-56
2022/11/29 01:26:46;;;;;;;11.05;10.25;;;;;;;;;;4991499;28;20042;-57
2022/11/29 01:29:12;;;;;;;11.02;10.13;;;;;;;;;;4992380;28;20073;-55
2022/11/29 01:31:37;;;;;;;10.82;10.02;;;;;;;;;;4991691;28;20042;-57
2022/11/29 01:34:05;;;;;;;10.50;9.70;;;;;;;;;;4992107;28;20100;-57
2022/11/29 01:36:31;;;;;;;9.70;9.02;;;;;;;;;;4994702;28;20116;-57
2022/11/29 01:38:59;;;;;;;11.63;10.50;;;;;;;;;;4991915;28;20092;-57
2022/11/29 01:41:26;;;;;;;11.52;10.27;;;;;;;;;;4993819;28;20038;-56
2022/11/29 01:44:05;;;;;;;9.73;9.05;;;;;;;;;;4991092;28;20038;-56
2022/11/29 01:46:42;;;;;;;10.20;9.30;;;;;;;;;;4991807;28;20480;-56
2022/11/29 01:49:43;;;;;;;9.32;8.70;;;;;;;;;;4993268;28;20193;-56
2022/11/29 01:52:16;;;;;;;10.55;9.77;;;;;;;;;;4975822;28;20034;-55
2022/11/29 01:54:45;;;;;;;10.55;9.73;;;;;;;;;;4993064;28;20029;-56
2022/11/29 01:57:13;;;;;;;12.38;11.38;;;;;;;;;;4992884;28;20074;-56
2022/11/29 01:59:43;;;;;;;10.30;9.60;;;;;;;;;;4991810;28;20077;-56
2022/11/29 02:02:14;;;;;;;9.80;9.10;;;;;;;;;;4992818;28;20340;-57
2022/11/29 02:04:41;;;;;;;10.73;9.93;;;;;;;;;;4992573;28;20407;-56
2022/11/29 02:07:08;;;;;;;10.10;9.30;;;;;;;;;;4994094;28;20064;-56
2022/11/29 02:09:33;;;;;;;11.85;10.88;;;;;;;;;;4993567;28;20116;-56
2022/11/29 02:12:09;;;;;;;11.10;10.30;;;;;;;;;;4993121;28;20383;-55
2022/11/29 02:14:46;;;;;;;10.52;9.65;;;;;;;;;;4992230;28;20038;-56
2022/11/29 02:17:22;;;;;;;8.80;8.20;;;;;;;;;;4992325;28;20027;-56
2022/11/29 02:20:38;;;;;;;10.75;9.95;;;;;;;;;;4991448;28;20065;-56
2022/11/29 02:23:25;;;;;;;10.75;9.85;;;;;;;;;;4956036;28;20365;-56
2022/11/29 02:26:34;;;;;;;19.20;9.20;;;;;;;;;;4955816;28;20038;-56
2022/11/29 02:29:06;;;;;;;10.38;9.68;;;;;;;;;;4988005;28;20042;-56
2022/11/29 02:31:31;;;;;;;;;;;;;;;;;;4992376;28;20045;-56
2022/11/29 02:34:05;;;;;;;9.60;8.85;;;;;;;;;;4991349;28;20347;-56
2022/11/29 02:36:43;;;;;;;11.25;10.25;;;;;;;;;;4991563;28;20045;-57
2022/11/29 02:39:08;;;;;;;11.05;10.27;;;;;;;;;;4987903;28;20084;-56
2022/11/29 02:42:15;;;;;;;11.23;10.45;;;;;;;;;;4989699;28;20438;-54
2022/11/29 02:45:08;;;;;;;11.18;10.38;;;;;;;;;;4993319;28;20099;-57
2022/11/29 02:47:46;;;;;;;10.25;9.55;;;;;;;;;;4988343;28;20038;-55
2022/11/29 02:50:26;;;;;;;10.73;9.90;;;;;;;;;;4987716;28;20469;-54
2022/11/29 02:53:04;;;;;;;9.73;8.90;;;;;;;;;;4990112;28;20042;-56
2022/11/29 02:55:51;;;;;;;9.93;9.20;;;;;;;;;;4990645;28;20069;-54
2022/11/29 02:58:59;;;;;;;10.63;9.88;;;;;;;;;;4994648;28;20416;-56
2022/11/29 03:01:27;;;;;;;10.93;10.13;;;;;;;;;;4973463;28;20069;-56
2022/11/29 03:04:07;;;;;;;12.48;11.43;;;;;;;;;;4990813;28;20394;-55
2022/11/29 03:07:19;;;;;;;10.93;10.10;;;;;;;;;;4991044;28;20042;-57
2022/11/29 03:10:03;;;;;;;9.90;9.25;;;;;;;;;;4987326;28;20089;-57
2022/11/29 03:12:37;;;;;;;10.68;9.77;;;;;;;;;;4990539;28;20029;-56
2022/11/29 03:15:18;;;;;;;9.50;8.80;;;;;;;;;;4993159;28;20075;-56
2022/11/29 03:17:46;;;;;;;9.88;9.15;;;;;;;;;;4990947;28;20368;-56
2022/11/29 03:20:35;;;;;;;9.35;8.70;;;;;;;;;;4998826;28;20025;-56
2022/11/29 03:23:06;;;;;;;9.70;9.00;;;;;;;;;;4990738;28;20434;-55
2022/11/29 03:25:41;;;;;;;9.40;8.70;;;;;;;;;;4990632;28;20034;-56
2022/11/29 03:28:18;;;;;;;11.82;10.88;;;;;;;;;;4990739;28;20415;-55
2022/11/29 03:31:13;;;;;;;8.82;8.23;;;;;;;;;;4989013;28;20080;-54
2022/11/29 03:34:06;;;;;;;10.27;9.57;;;;;;;;;;4989421;28;20721;-55
2022/11/29 03:36:50;;;;;;;10.60;9.80;;;;;;;;;;4991868;28;20026;-56
2022/11/29 03:39:53;;;;;;;8.98;8.38;;;;;;;;;;4993023;28;20095;-56
2022/11/29 03:42:25;;;;;;;11.40;10.60;;;;;;;;;;4986285;28;20051;-55
2022/11/29 03:45:15;;;;;;;10.77;9.93;;;;;;;;;;4991077;28;20033;-57
2022/11/29 03:48:01;;;;;;;9.85;9.15;;;;;;;;;;4991952;28;20116;-55
2022/11/29 03:50:33;;;;;;;9.38;8.75;;;;;;;;;;4990388;28;20045;-56
2022/11/29 03:53:10;;;;;;;10.70;9.57;;;;;;;;;;4992248;28;20026;-55
2022/11/29 03:55:49;;;;;;;9.82;9.13;;;;;;;;;;4992333;28;20042;-54
2022/11/29 03:58:52;;;;;;;10.48;9.57;;;;;;;;;;4992669;28;20022;-56
2022/11/29 04:01:29;;;;;;;9.93;9.23;;;;;;;;;;4989122;28;20038;-55
2022/11/29 04:04:31;;;;;;;11.25;10.32;;;;;;;;;;4989841;28;20379;-54
2022/11/29 04:06:59;;;;;;;10.07;9.38;;;;;;;;;;4990688;28;20030;-54
2022/11/29 04:09:44;;;;;;;10.35;9.55;;;;;;;;;;4993111;28;20030;-56
2022/11/29 04:12:43;;;;;;;9.70;8.95;;;;;;;;;;4991104;28;20022;-55
2022/11/29 04:15:46;;;;;;;10.88;9.98;;;;;;;;;;4993512;28;20041;-54
2022/11/29 04:18:17;;;;;;;10.00;9.23;;;;;;;;;;4993703;28;20107;-55
2022/11/29 04:21:25;;;;;;;11.43;10.65;;;;;;;;;;4992354;28;20030;-55
2022/11/29 04:24:30;;;;;;;10.00;9.30;;;;;;;;;;4994374;28;20166;-56
2022/11/29 04:26:58;;;;;;;9.23;8.63;;;;;;;;;;4991751;28;20041;-55
2022/11/29 04:29:49;;;;;;;10.35;9.63;;;;;;;;;;4995672;28;20050;-56
2022/11/29 04:32:17;;;;;;;9.18;8.55;;;;;;;;;;4994712;28;20057;-56
2022/11/29 04:35:21;;;;;;;9.50;8.90;;;;;;;;;;5003099;28;20041;-55
2022/11/29 04:38:17;;;;;;;12.27;11.27;;;;;;;;;;4993497;28;20125;-55
2022/11/29 04:41:20;;;;;;;9.93;9.23;;;;;;;;;;4991660;28;20038;-54
2022/11/29 04:44:07;;;;;;;9.65;9.05;;;;;;;;;;4996845;28;20038;-55
2022/11/29 04:46:50;;;;;;;10.80;9.77;;;;;;;;;;4993574;28;20061;-54
2022/11/29 04:49:34;;;;;;;9.80;9.00;;;;;;;;;;4994838;28;20045;-55
2022/11/29 04:52:18;;;;;;;9.73;9.02;;;;;;;;;;4990739;28;20042;-55
2022/11/29 04:55:13;;;;;;;10.75;9.95;;;;;;;;;;4992876;28;20041;-55
2022/11/29 04:57:46;;;;;;;10.32;9.52;;;;;;;;;;4993344;28;20026;-55
2022/11/29 05:00:22;;;;;;;9.52;8.93;;;;;;;;;;4993265;28;20030;-56
2022/11/29 05:03:00;;;;;;;10.70;9.90;;;;;;;;;;4990801;28;20030;-55
2022/11/29 05:05:36;;;;;;;11.02;10.23;;;;;;;;;;4991384;28;20025;-56
2022/11/29 05:08:10;;;;;;;10.15;9.45;;;;;;;;;;4990027;28;20026;-56
2022/11/29 05:10:47;;;;;;;10.75;9.98;;;;;;;;;;4995582;28;20044;-56
2022/11/29 05:13:33;;;;;;;10.73;10.02;;;;;;;;;;4992999;28;20093;-56
2022/11/29 05:16:26;;;;;;;10.73;10.02;;;;;;;;;;4992976;28;20048;-57
2022/11/29 05:19:27;;;;;;;11.18;10.38;;;;;;;;;;4995898;28;20078;-56
2022/11/29 05:22:11;;;;;;;11.77;10.87;;;;;;;;;;4991349;28;20041;-56
2022/11/29 05:24:48;;;;;;;10.43;9.63;;;;;;;;;;4992435;28;20407;-56
2022/11/29 05:27:25;;;;;;;10.77;9.93;;;;;;;;;;4993439;28;20030;-56
2022/11/29 05:29:54;;;;;;;11.73;10.82;;;;;;;;;;4991628;28;20041;-55
2022/11/29 05:32:38;;;;;;;12.02;10.50;;;;;;;;;;4993691;28;20034;-56
2022/11/29 05:35:57;;;;;;;19.75;11.82;;;;;;;;;;4992560;28;20150;-56
2022/11/29 05:39:12;;;;;;;12.50;11.38;;;;;;;;;;4949159;28;20418;-56
2022/11/29 05:41:47;;;;;;;12.43;11.52;;;;;;;;;;4962911;28;20046;-56
2022/11/29 05:44:21;;;;;;;13.43;12.25;;;;;;;;;;4970406;28;20104;-55
2022/11/29 05:46:53;;;;;;;12.35;11.48;;;;;;;;;;4982934;28;20209;-55
2022/11/29 05:49:40;;;;;;;12.70;11.85;;;;;;;;;;4993563;28;20044;-56
2022/11/29 05:52:24;;;;;;;12.68;11.60;;;;;;;;;;4992581;28;20038;-54
2022/11/29 05:55:09;;;;;;;11.40;10.45;;;;;;;;;;4991685;28;20034;-54
2022/11/29 05:57:52;;;;;;;10.60;9.80;;;;;;;;;;4991193;28;20042;-55
2022/11/29 06:00:18;;;;;;;11.65;10.70;;;;;;;;;;4992883;28;20468;-57
2022/11/29 06:03:05;;;;;;;11.55;10.68;;;;;;;;;;4992615;28;20041;-51
2022/11/29 06:05:38;;;;;;;10.95;10.15;;;;;;;;;;4993515;28;20246;-56
2022/11/29 06:08:19;;;;;;;11.73;10.93;;;;;;;;;;4990382;28;20018;-50
2022/11/29 06:11:05;;;;;;;11.43;10.43;;;;;;;;;;4995200;28;20414;-53
2022/11/29 06:13:48;;;;;;;10.73;10.02;;;;;;;;;;4992013;28;20584;-53
2022/11/29 06:16:32;;;;;;;10.77;9.98;;;;;;;;;;4992420;28;20181;-51
2022/11/29 06:19:16;;;;;;;12.77;11.65;;;;;;;;;;4991260;28;20511;-55
2022/11/29 06:22:20;;;;;;;10.88;10.18;;;;;;;;;;4990644;28;20041;-53
2022/11/29 06:25:23;;;;;;;10.85;10.00;;;;;;;;;;4939223;28;20077;-51
2022/11/29 06:28:04;;;;;;;11.93;10.98;;;;;;;;;;4990974;28;20403;-53
2022/11/29 06:31:02;;;;;;;11.48;10.60;;;;;;;;;;4992253;28;20479;-52
2022/11/29 06:33:57;;;;;;;10.35;9.63;;;;;;;;;;4987852;28;20632;-53
2022/11/29 06:36:34;;;;;;;10.75;9.95;;;;;;;;;;4993251;28;20046;-54
2022/11/29 06:38:59;;;;;;;10.98;10.10;;;;;;;;;;4991212;28;20133;-50
2022/11/29 06:41:25;;;;;;;10.60;9.70;;;;;;;;;;4990805;28;20044;-54
2022/11/29 06:43:51;;;;;;;11.55;10.63;;;;;;;;;;4990784;28;20038;-57
2022/11/29 06:46:55;;;;;;;13.63;12.32;;;;;;;;;;4993238;28;20132;-51
2022/11/29 06:49:26;;;;;;;16.35;14.77;;;;;;;;;;4990337;28;20183;-52
2022/11/29 06:51:57;;;;;;;21.05;19.00;;;;;;;;;;4990364;28;20113;-55
2022/11/29 06:55:00;;;;;;;26.73;21.83;;;;;;;;;;4991509;28;20038;-55
2022/11/29 06:57:50;;;;;;;15.57;14.05;;;;;;;;;;4990029;28;20472;-54
2022/11/29 07:00:22;;;;;;;18.33;13.60;;;;;;;;;;4992445;28;20026;-56
2022/11/29 07:03:00;;;;;;;13.48;12.27;;;;;;;;;;4991178;28;20057;-55
2022/11/29 07:05:35;;;;;;;12.23;11.32;;;;;;;;;;4990493;28;20045;-56
2022/11/29 07:08:09;;;;;;;13.43;12.50;;;;;;;;;;4991466;28;20074;-55
2022/11/29 07:10:37;;;;;;;12.07;11.18;;;;;;;;;;4993102;28;20041;-56
2022/11/29 07:13:03;;;;;;;11.52;10.63;;;;;;;;;;4989544;28;20083;-55
2022/11/29 07:15:28;;;;;;;11.77;10.88;;;;;;;;;;4989381;28;20129;-54
2022/11/29 07:18:06;;;;;;;12.68;11.68;;;;;;;;;;4991762;28;20212;-54
2022/11/29 07:21:06;;;;;;;12.18;11.10;;;;;;;;;;4991719;28;20420;-52
2022/11/29 07:23:44;;;;;;;12.27;11.38;;;;;;;;;;4990471;28;20384;-54
2022/11/29 07:26:28;;;;;;;10.60;9.80;;;;;;;;;;4990374;28;20029;-55
2022/11/29 07:29:20;;;;;;;12.68;11.57;;;;;;;;;;4986978;28;20153;-50
2022/11/29 07:32:18;;;;;;;11.20;10.43;;;;;;;;;;4988642;28;20038;-49
2022/11/29 07:35:15;;;;;;;10.85;10.13;;;;;;;;;;4983488;28;20042;-54
2022/11/29 07:37:52;;;;;;;11.85;11.05;;;;;;;;;;4990160;28;20558;-50
2022/11/29 07:40:58;;;;;;;11.45;10.65;;;;;;;;;;4989926;28;20097;-55
2022/11/29 07:43:52;;;;;;;11.57;10.77;;;;;;;;;;4990830;28;20041;-53
2022/11/29 07:46:17;;;;;;;11.52;10.50;;;;;;;;;;4990152;28;20046;-53
2022/11/29 07:48:43;;;;;;;12.68;11.77;;;;;;;;;;4993466;28;20034;-52
2022/11/29 07:51:09;;;;;;;11.68;10.88;;;;;;;;;;4994774;28;20061;-49
2022/11/29 07:53:40;;;;;;;12.43;11.43;;;;;;;;;;4989089;28;20088;-55
2022/11/29 07:56:05;;;;;;;;;;;;;;;;;;4991758;28;20069;-52
2022/11/29 07:58:31;;;;;;;12.38;11.48;;;;;;;;;;4995237;28;19921;-52
2022/11/29 08:00:56;;;;;;;12.13;11.23;;;;;;;;;;4994074;28;20025;-54
2022/11/29 08:03:21;;;;;;;12.23;11.20;;;;;;;;;;4993085;28;20549;-53
2022/11/29 08:05:47;;;;;;;19.85;11.88;;;;;;;;;;4992600;28;20380;-54
2022/11/29 08:08:12;;;;;;;11.48;10.57;;;;;;;;;;4994029;28;20029;-54
2022/11/29 08:10:38;;;;;;;11.65;10.85;;;;;;;;;;4994351;28;20110;-53
2022/11/29 08:13:03;;;;;;;10.93;10.10;;;;;;;;;;4995695;28;20129;-56
2022/11/29 08:15:29;;;;;;;11.82;10.93;;;;;;;;;;4991060;28;20057;-55
2022/11/29 08:17:54;;;;;;;10.85;10.15;;;;;;;;;;4994672;28;20089;-55
2022/11/29 08:20:19;;;;;;;12.20;11.30;;;;;;;;;;4993022;28;20491;-56
2022/11/29 08:22:55;;;;;;;10.95;10.25;;;;;;;;;;4990360;28;20515;-55
2022/11/29 08:25:21;;;;;;;10.88;10.10;;;;;;;;;;4994095;28;20022;-55
2022/11/29 08:27:47;;;;;;;10.07;9.38;;;;;;;;;;4991989;28;20428;-56
2022/11/29 08:30:12;;;;;;;10.43;9.73;;;;;;;;;;4993516;28;20456;-56
2022/11/29 08:32:38;;;;;;;12.18;11.20;;;;;;;;;;4990914;28;20049;-56
2022/11/29 08:35:03;;;;;;;12.60;11.60;;;;;;;;;;4994126;28;20334;-56
2022/11/29 08:37:29;;;;;;;11.30;10.38;;;;;;;;;;4994088;28;20504;-56
2022/11/29 08:39:54;;;;;;;13.13;10.60;;;;;;;;;;4989533;28;20039;-52
2022/11/29 08:42:20;;;;;;;11.88;10.85;;;;;;;;;;4992667;28;20530;-54
2022/11/29 08:44:46;;;;;;;10.63;9.93;;;;;;;;;;4993206;28;20042;-54
2022/11/29 08:50:01;;;;;;;10.20;9.48;;;;;;;;;;4993982;28;20073;-57
2022/11/29 08:55:23;;;;;;;9.55;8.95;;;;;;;;;;4991956;28;19914;-57
2022/11/29 08:57:50;;;;;;;11.98;10.98;;;;;;;;;;4993161;28;20034;-58
2022/11/29 09:00:17;;;;;;;11.20;10.50;;;;;;;;;;4992294;28;20049;-58
2022/11/29 09:02:42;;;;;;;10.68;9.57;;;;;;;;;;4992446;28;20533;-57
2022/11/29 09:05:09;;;;;;;10.95;10.15;;;;;;;;;;4997636;28;20180;-57
2022/11/29 09:07:35;;;;;;;10.43;9.63;;;;;;;;;;4992217;28;20030;-56
2022/11/29 09:10:06;;;;;;;14.48;10.32;;;;;;;;;;4994297;28;20053;-56
2022/11/29 09:12:33;;;;;;;11.63;10.80;;;;;;;;;;4988858;28;20041;-57
2022/11/29 09:14:59;;;;;;;11.35;10.55;;;;;;;;;;4992025;28;20084;-57
2022/11/29 09:17:24;;;;;;;12.23;11.35;;;;;;;;;;4992813;28;20034;-56
2022/11/29 09:19:49;;;;;;;11.68;10.65;;;;;;;;;;4993136;28;20061;-57
2022/11/29 09:22:15;;;;;;;11.20;10.38;;;;;;;;;;4993829;28;20026;-57
2022/11/29 09:24:40;;;;;;;11.82;11.02;;;;;;;;;;4993459;28;20076;-56
2022/11/29 09:27:06;;;;;;;11.52;10.73;;;;;;;;;;4994171;28;20038;-57
2022/11/29 09:29:31;;;;;;;11.13;10.43;;;;;;;;;;4992191;28;20121;-58
2022/11/29 09:31:57;;;;;;;12.52;11.73;;;;;;;;;;4993279;28;20038;-57
2022/11/29 09:34:22;;;;;;;10.68;9.88;;;;;;;;;;4995060;28;20100;-57
2022/11/29 09:36:47;;;;;;;11.13;10.23;;;;;;;;;;4991539;28;20048;-58
2022/11/29 09:39:13;;;;;;;11.40;10.52;;;;;;;;;;4992084;28;20057;-58
2022/11/29 09:41:50;;;;;;;11.63;10.82;;;;;;;;;;4992550;28;20423;-58
2022/11/29 09:44:20;;;;;;;10.15;9.45;;;;;;;;;;4993860;28;20489;-58
2022/11/29 09:47:09;;;;;;;11.18;10.27;;;;;;;;;;4991062;28;20088;-56
2022/11/29 09:49:56;;;;;;;11.10;10.38;;;;;;;;;;4991115;28;20302;-58
2022/11/29 09:52:40;;;;;;;11.40;10.50;;;;;;;;;;4993587;28;20285;-58
2022/11/29 09:55:23;;;;;;;10.40;9.70;;;;;;;;;;4990993;28;20038;-57
2022/11/29 09:57:50;;;;;;;10.48;9.73;;;;;;;;;;4991836;28;20034;-57
2022/11/29 10:00:18;;;;;;;11.82;10.82;;;;;;;;;;4990789;28;20030;-58
2022/11/29 10:02:51;;;;;;;12.13;10.95;;;;;;;;;;4989148;28;20030;-58
2022/11/29 10:05:24;;;;;;;11.32;10.45;;;;;;;;;;4993003;28;20493;-60
2022/11/29 10:07:57;;;;;;;10.00;9.30;;;;;;;;;;4988886;28;20034;-60
2022/11/29 10:10:32;;;;;;;12.15;10.95;;;;;;;;;;4992728;28;20038;-59
2022/11/29 10:13:05;;;;;;;12.73;11.82;;;;;;;;;;4993618;28;20407;-59
2022/11/29 10:15:38;;;;;;;12.02;11.13;;;;;;;;;;4991746;28;20367;-59
2022/11/29 10:18:15;;;;;;;11.88;10.77;;;;;;;;;;4991447;28;20061;-58
2022/11/29 10:20:43;;;;;;;10.50;9.70;;;;;;;;;;4987988;28;20042;-58
2022/11/29 10:23:19;;;;;;;11.15;10.30;;;;;;;;;;4991421;28;20558;-58
2022/11/29 10:25:50;;;;;;;12.40;11.35;;;;;;;;;;4989442;28;20420;-59
2022/11/29 10:28:19;;;;;;;;;;;;;;;;;;4992531;28;20028;-58
2022/11/29 10:30:45;;;;;;;12.52;11.52;;;;;;;;;;4989095;28;19969;-59
2022/11/29 10:33:19;;;;;;;12.13;11.00;;;;;;;;;;4991331;28;20049;-59
2022/11/29 10:35:48;;;;;;;11.25;10.43;;;;;;;;;;4994711;28;20025;-59
2022/11/29 10:38:14;;;;;;;12.18;11.15;;;;;;;;;;4989993;28;20018;-58
2022/11/29 10:40:45;;;;;;;10.75;9.95;;;;;;;;;;4990311;28;20038;-59
2022/11/29 10:43:11;;;;;;;11.20;10.50;;;;;;;;;;4991528;28;20026;-58
2022/11/29 10:45:46;;;;;;;11.18;10.27;;;;;;;;;;4992698;28;20038;-58
2022/11/29 10:48:14;;;;;;;11.30;10.45;;;;;;;;;;4994502;28;20026;-58
2022/11/29 10:50:42;;;;;;;11.50;10.60;;;;;;;;;;4991057;28;20029;-59
2022/11/29 10:53:11;;;;;;;10.50;9.73;;;;;;;;;;4994295;28;20117;-59
2022/11/29 10:55:48;;;;;;;11.38;10.57;;;;;;;;;;4991798;28;20061;-58
2022/11/29 10:58:24;;;;;;;10.85;10.00;;;;;;;;;;4991176;28;20389;-58
2022/11/29 11:00:57;;;;;;;10.85;10.00;;;;;;;;;;4989733;28;20025;-59
2022/11/29 11:03:37;;;;;;;11.23;10.43;;;;;;;;;;4993537;28;20038;-59
2022/11/29 11:06:08;;;;;;;10.95;10.10;;;;;;;;;;4992694;28;20034;-58
2022/11/29 11:08:34;;;;;;;;;;;;;;;;;;4991573;28;20026;-58
2022/11/29 11:11:01;;;;;;;9.88;9.13;;;;;;;;;;4992149;28;19921;-59
2022/11/29 11:13:29;;;;;;;11.40;10.43;;;;;;;;;;4994560;28;20042;-59
2022/11/29 11:16:12;;;;;;;10.93;10.13;;;;;;;;;;4991022;28;20033;-59
2022/11/29 11:18:38;;;;;;;11.05;10.35;;;;;;;;;;4994971;28;20449;-59
2022/11/29 11:21:08;;;;;;;11.13;9.95;;;;;;;;;;4998014;28;20038;-59
2022/11/29 11:23:38;;;;;;;10.88;10.00;;;;;;;;;;4995453;28;20026;-58
2022/11/29 11:26:10;;;;;;;10.50;9.67;;;;;;;;;;4995475;28;20030;-59
2022/11/29 11:28:42;;;;;;;11.32;10.43;;;;;;;;;;4996872;28;20137;-59
2022/11/29 11:31:09;;;;;;;12.13;11.23;;;;;;;;;;4991612;28;20533;-58
2022/11/29 11:33:43;;;;;;;12.82;11.52;;;;;;;;;;4996149;28;20045;-58
2022/11/29 11:36:18;;;;;;;10.30;9.52;;;;;;;;;;4996758;28;20041;-57
2022/11/29 11:38:54;;;;;;;10.85;9.93;;;;;;;;;;4990702;28;20040;-59
2022/11/29 11:44:28;;;;;;;10.20;9.50;;;;;;;;;;4996277;28;20087;-58
2022/11/29 11:46:53;;;;;;;11.45;10.55;;;;;;;;;;4997510;28;20034;-58
2022/11/29 11:49:29;;;;;;;10.88;10.07;;;;;;;;;;4991546;28;20042;-59
2022/11/29 11:51:57;;;;;;;10.85;9.88;;;;;;;;;;4992749;28;20042;-58
2022/11/29 11:54:22;;;;;;;12.48;11.57;;;;;;;;;;4991417;28;20427;-59
2022/11/29 11:56:48;;;;;;;12.73;11.68;;;;;;;;;;4994162;28;20033;-59
2022/11/29 11:59:23;;;;;;;10.80;9.95;;;;;;;;;;4995178;28;20083;-58
2022/11/29 12:01:49;;;;;;;11.52;10.40;;;;;;;;;;4994168;28;20145;-58
2022/11/29 12:04:23;;;;;;;11.18;10.27;;;;;;;;;;4998408;28;20124;-58
2022/11/29 12:06:58;;;;;;;15.85;11.23;;;;;;;;;;4995000;28;20065;-58
2022/11/29 12:09:45;;;;;;;11.50;10.57;;;;;;;;;;4994692;28;20189;-58
2022/11/29 12:12:14;;;;;;;11.05;10.18;;;;;;;;;;4996301;28;20118;-55
2022/11/29 12:14:53;;;;;;;10.50;9.70;;;;;;;;;;4995841;28;20065;-58
2022/11/29 12:17:38;;;;;;;10.63;9.73;;;;;;;;;;4995892;28;20021;-59
2022/11/29 12:20:41;;;;;;;10.20;9.45;;;;;;;;;;4995524;28;20022;-58
2022/11/29 12:23:13;;;;;;;11.05;10.02;;;;;;;;;;4996582;28;20601;-59
2022/11/29 12:25:52;;;;;;;10.82;10.13;;;;;;;;;;4994208;28;20034;-58
2022/11/29 12:28:19;;;;;;;10.90;10.18;;;;;;;;;;4997624;28;20030;-58
2022/11/29 12:31:02;;;;;;;11.18;10.23;;;;;;;;;;4998681;28;20038;-57
2022/11/29 12:34:01;;;;;;;12.02;11.13;;;;;;;;;;4997242;28;20096;-57
2022/11/29 12:36:33;;;;;;;11.57;10.68;;;;;;;;;;4995056;28;20136;-58
2022/11/29 12:39:13;;;;;;;11.50;10.60;;;;;;;;;;4996707;28;20039;-58
2022/11/29 12:41:52;;;;;;;11.68;10.77;;;;;;;;;;4993177;28;20030;-58
2022/11/29 12:44:54;;;;;;;11.02;10.10;;;;;;;;;;5001256;28;20041;-57
2022/11/29 12:47:38;;;;;;;12.55;11.55;;;;;;;;;;4993447;28;20424;-58
2022/11/29 12:50:27;;;;;;;11.05;10.25;;;;;;;;;;4993983;28;20042;-57
2022/11/29 12:53:12;;;;;;;11.45;10.55;;;;;;;;;;4994783;28;20042;-58
2022/11/29 12:56:15;;;;;;;10.85;10.02;;;;;;;;;;4997268;28;20097;-58
2022/11/29 12:58:52;;;;;;;10.15;9.40;;;;;;;;;;4993875;28;20062;-58
2022/11/29 13:01:59;;;;;;;10.75;9.75;;;;;;;;;;4994097;28;20026;-58
2022/11/29 13:04:40;;;;;;;10.27;9.55;;;;;;;;;;4994101;28;20679;-58
2022/11/29 13:07:38;;;;;;;12.10;10.88;;;;;;;;;;4979510;28;20029;-58
2022/11/29 13:10:36;;;;;;;12.55;11.48;;;;;;;;;;4995467;28;20042;-58
2022/11/29 13:13:19;;;;;;;12.15;11.00;;;;;;;;;;4987955;28;20041;-57
2022/11/29 13:15:59;;;;;;;11.18;10.35;;;;;;;;;;4994928;28;20033;-58
2022/11/29 13:18:49;;;;;;;10.68;9.88;;;;;;;;;;4994972;28;20030;-57
2022/11/29 13:21:23;;;;;;;11.70;10.80;;;;;;;;;;4994027;28;20061;-67
2022/11/29 13:23:48;;;;;;;12.10;11.20;;;;;;;;;;4994447;28;20049;-68
2022/11/29 13:26:15;;;;;;;11.85;10.73;;;;;;;;;;4991879;28;20030;-67
2022/11/29 13:28:43;;;;;;;12.18;11.23;;;;;;;;;;4995123;28;20026;-67
2022/11/29 13:31:13;;;;;;;12.23;11.27;;;;;;;;;;4994695;28;20537;-68
2022/11/29 13:33:55;;;;;;;13.25;12.15;;;;;;;;;;4996580;28;20034;-68
2022/11/29 13:36:39;;;;;;;11.43;10.52;;;;;;;;;;5000263;28;20045;-68
2022/11/29 13:39:26;;;;;;;15.05;13.63;;;;;;;;;;4993521;28;20519;-68
2022/11/29 13:42:15;;;;;;;12.70;11.50;;;;;;;;;;4992917;28;20544;-67
2022/11/29 13:44:46;;;;;;;13.18;12.02;;;;;;;;;;4994971;28;20041;-68
2022/11/29 13:47:13;;;;;;;;;;;;;;;;;;4997817;28;20395;-69
2022/11/29 13:50:01;;;;;;;11.73;10.73;;;;;;;;;;4994800;28;19928;-69
2022/11/29 13:52:46;;;;;;;11.18;10.20;;;;;;;;;;4993084;28;20030;-68
2022/11/29 13:55:13;;;;;;;13.10;12.05;;;;;;;;;;4995357;28;20045;-67
2022/11/29 13:58:09;;;;;;;14.65;13.32;;;;;;;;;;4992779;28;20033;-68
2022/11/29 14:00:47;;;;;;;11.13;10.23;;;;;;;;;;4991968;28;20045;-67
2022/11/29 14:03:21;;;;;;;12.20;11.30;;;;;;;;;;4994280;28;20022;-67
2022/11/29 14:05:50;;;;;;;13.30;12.23;;;;;;;;;;4990439;28;20073;-68
2022/11/29 14:08:22;;;;;;;28.02;12.82;;;;;;;;;;4991205;28;20037;-67
2022/11/29 14:10:49;;;;;;;14.20;13.10;;;;;;;;;;4992458;28;20435;-66
2022/11/29 14:13:15;;;;;;;13.25;12.18;;;;;;;;;;4992524;28;20604;-67
2022/11/29 14:15:41;;;;;;;14.38;13.15;;;;;;;;;;4990438;28;20104;-67
2022/11/29 14:18:35;;;;;;;13.43;12.43;;;;;;;;;;4992339;28;20042;-67
2022/11/29 14:21:01;;;;;;;15.43;14.13;;;;;;;;;;4990674;28;20038;-67
2022/11/29 14:23:45;;;;;;;13.07;12.07;;;;;;;;;;4993338;28;20061;-67
2022/11/29 14:26:11;;;;;;;14.25;13.23;;;;;;;;;;4992579;28;20029;-67
2022/11/29 14:28:39;;;;;;;13.95;12.93;;;;;;;;;;4990699;28;20037;-67
2022/11/29 14:31:06;;;;;;;15.80;14.23;;;;;;;;;;4990080;28;20084;-67
2022/11/29 14:34:17;;;;;;;19.90;17.95;;;;;;;;;;4993809;28;20073;-68
2022/11/29 14:36:51;;;;;;;15.32;14.05;;;;;;;;;;4994816;28;20041;-68
2022/11/29 14:39:23;;;;;;;13.00;12.00;;;;;;;;;;4993659;28;20049;-68
2022/11/29 14:42:01;;;;;;;15.15;13.65;;;;;;;;;;4989547;28;20110;-68
2022/11/29 14:44:29;;;;;;;14.57;13.27;;;;;;;;;;4991535;28;20044;-67
2022/11/29 14:47:14;;;;;;;14.82;13.52;;;;;;;;;;4991327;28;20101;-67
2022/11/29 14:49:42;;;;;;;13.18;12.10;;;;;;;;;;4991762;28;20097;-66
2022/11/29 14:52:17;;;;;;;12.48;11.57;;;;;;;;;;4992797;28;20031;-66
2022/11/29 14:55:01;;;;;;;14.43;13.15;;;;;;;;;;4993067;28;20157;-67
2022/11/29 14:57:48;;;;;;;14.50;13.40;;;;;;;;;;4993361;28;20906;-67
2022/11/29 15:00:18;;;;;;;13.02;12.00;;;;;;;;;;4993226;28;20053;-68
2022/11/29 15:03:07;;;;;;;15.07;13.88;;;;;;;;;;4988335;28;20052;-67
2022/11/29 15:05:41;;;;;;;13.98;12.95;;;;;;;;;;4995790;28;20034;-71
2022/11/29 15:08:31;;;;;;;14.75;13.20;;;;;;;;;;4991857;28;20480;-71
2022/11/29 15:11:20;;;;;;;13.63;12.52;;;;;;;;;;4993271;28;20419;-70
2022/11/29 15:14:06;;;;;;;12.90;11.70;;;;;;;;;;4970141;28;20042;-71
2022/11/29 15:16:54;;;;;;;13.50;12.40;;;;;;;;;;4992701;28;20039;-72
2022/11/29 15:19:41;;;;;;;12.43;11.32;;;;;;;;;;4994166;28;20042;-71
2022/11/29 15:22:20;;;;;;;12.30;11.43;;;;;;;;;;4992109;28;20034;-73
2022/11/29 15:24:58;;;;;;;59.45;39.20;;;;;;;;;;4988931;28;20110;-71
2022/11/29 15:27:23;;;;;;;26.42;23.63;;;;;;;;;;4990437;28;20023;-69